Time;durP1;ratioP1;P1;durP2;ratioP2;P2;SDS_P1;SDS_P2;PMS_P1;PMS_P2;Temp;Humidity;BMP_temperature;BMP_pressure;BME280_temperature;BME280_humidity;BME280_pressure;Samples;Min_cycle;Max_cycle;Signal;HPM_P1;HPM_P2
2020/12/24 00:00:23;;;;;;;;;;;;;;;22.26;26.67;98080.41;5122734;28;749;-75
2020/12/24 00:02:49;;;;;;;;;;;;;;;22.61;26.04;98083.47;5125159;28;714;-74
2020/12/24 00:05:14;;;;;;;;;;;;;;;22.67;25.93;98080.84;5124342;28;916;-76
2020/12/24 00:07:40;;;;;;;;;;;;;;;22.81;25.75;98084.06;5124895;28;871;-76
2020/12/24 00:10:05;;;;;;;;;;;;;;;22.75;25.73;98096.44;5124644;28;810;-75
2020/12/24 00:12:31;;;;;;;;;;;;;;;22.20;26.02;98093.53;5125011;28;622;-74
2020/12/24 00:14:56;;;;;;;;;;;;;;;21.31;27.75;98096.59;5124760;28;670;-76
2020/12/24 00:17:22;;;;;;;;;;;;;;;20.97;28.33;98101.78;5125100;28;1905;-75
2020/12/24 00:19:47;;;;;;;;;;;;;;;21.46;27.74;98110.41;5123992;28;1062;-75
2020/12/24 00:22:15;;;;;;;;;;;;;;;22.30;26.59;98111.47;5107013;28;935;-74
2020/12/24 00:24:40;;;;;;;;;;;;;;;22.70;25.58;98103.44;5124452;28;840;-75
2020/12/24 00:27:06;;;;;;;;;;;;;;;22.53;25.84;98096.25;5124839;28;896;-75
2020/12/24 00:29:32;;;;;;;;;;;;;;;22.65;25.60;98095.50;5124179;28;633;-76
2020/12/24 00:31:58;;;;;;;;;;;;;;;22.15;26.20;98099.75;5124303;28;669;-75
2020/12/24 00:34:23;;;;;;;;;;;;;;;21.38;27.29;98092.78;5123834;28;932;-75
2020/12/24 00:36:48;;;;;;;;;;;;;;;21.98;26.77;98084.00;5124245;28;1972;-75
2020/12/24 00:39:14;;;;;;;;;;;;;;;22.36;26.18;98084.19;5124101;28;911;-76
2020/12/24 00:41:39;;;;;;;;;;;;;;;22.62;25.87;98079.38;5124333;28;1130;-75
2020/12/24 00:44:05;;;;;;;;;;;;;;;22.95;25.07;98093.41;5124188;28;610;-75
2020/12/24 00:46:30;;;;;;;;;;;;;;;22.86;25.27;98092.03;5124489;28;622;-75
2020/12/24 00:48:55;;;;;;;;;;;;;;;21.68;26.89;98097.31;5123555;28;1097;-75
2020/12/24 00:51:21;;;;;;;;;;;;;;;21.75;26.80;98094.28;5106172;28;1248;-75
2020/12/24 00:53:47;;;;;;;;;;;;;;;21.33;27.56;98091.28;5123606;28;857;-76
2020/12/24 00:56:12;;;;;;;;;;;;;;;22.09;26.82;98088.13;5124169;28;686;-74
2020/12/24 00:58:45;;;;;;;;;;;;;;;22.67;25.72;98087.31;5105860;28;1905;-75
2020/12/24 01:01:10;;;;;;;;;;;;;;;22.73;25.43;98088.34;5123679;28;641;-75
2020/12/24 01:03:35;;;;;;;;;;;;;;;23.01;25.32;98081.06;5123072;28;934;-75
2020/12/24 01:06:01;;;;;;;;;;;;;;;22.38;25.92;98072.38;5123793;28;913;-75
2020/12/24 01:08:26;;;;;;;;;;;;;;;21.37;27.40;98068.56;5123200;28;942;-75
2020/12/24 01:10:53;;;;;;;;;;;;;;;20.93;27.90;98062.25;5123149;28;653;-76
2020/12/24 01:13:18;;;;;;;;;;;;;;;21.77;27.25;98063.50;5122919;28;643;-75
2020/12/24 01:15:44;;;;;;;;;;;;;;;22.11;26.88;98065.03;5123082;28;619;-75
2020/12/24 01:18:09;;;;;;;;;;;;;;;22.68;25.67;98071.88;5122767;28;1902;-75
2020/12/24 01:20:34;;;;;;;;;;;;;;;22.66;25.78;98065.88;5123203;28;887;-75
2020/12/24 01:23:00;;;;;;;;;;;;;;;22.78;25.42;98050.13;5123182;28;825;-75
2020/12/24 01:25:25;;;;;;;;;;;;;;;22.72;25.34;98040.59;5122988;28;824;-76
2020/12/24 01:27:51;;;;;;;;;;;;;;;21.14;27.86;98048.88;5123209;28;670;-76
2020/12/24 01:30:16;;;;;;;;;;;;;;;21.33;27.65;98048.81;5122584;28;1021;-76
2020/12/24 01:32:42;;;;;;;;;;;;;;;21.63;27.50;98040.41;5122994;28;816;-75
2020/12/24 01:35:07;;;;;;;;;;;;;;;22.37;26.15;98043.22;5123534;28;864;-76
2020/12/24 01:37:33;;;;;;;;;;;;;;;22.34;26.23;98041.31;5122906;28;1902;-74
2020/12/24 01:39:58;;;;;;;;;;;;;;;22.82;25.47;98040.25;5122681;28;1001;-75
2020/12/24 01:42:24;;;;;;;;;;;;;;;22.94;25.52;98029.41;5123124;28;665;-75
2020/12/24 01:44:49;;;;;;;;;;;;;;;22.03;26.46;98029.63;5122327;28;950;-75
2020/12/24 01:47:15;;;;;;;;;;;;;;;21.19;27.47;98040.66;5122682;28;874;-75
2020/12/24 01:49:40;;;;;;;;;;;;;;;21.13;27.87;98036.75;5122917;28;1058;-75
2020/12/24 01:52:06;;;;;;;;;;;;;;;21.96;27.21;98038.28;5122643;28;669;-75
2020/12/24 01:54:31;;;;;;;;;;;;;;;22.27;26.23;98033.78;5104581;28;591;-75
2020/12/24 01:56:57;;;;;;;;;;;;;;;22.56;25.78;98038.63;5122460;28;1910;-74
2020/12/24 01:59:22;;;;;;;;;;;;;;;22.71;25.41;98039.81;5121986;28;967;-75
2020/12/24 02:01:49;;;;;;;;;;;;;;;21.45;27.52;98036.00;5122059;28;866;-75
2020/12/24 02:04:14;;;;;;;;;;;;;;;21.51;27.33;98028.56;5104558;28;1058;-75
2020/12/24 02:06:40;;;;;;;;;;;;;;;21.42;27.43;98027.59;5122711;28;698;-75
2020/12/24 02:09:06;;;;;;;;;;;;;;;22.12;26.71;98031.81;5104605;28;698;-75
2020/12/24 02:11:31;;;;;;;;;;;;;;;22.51;26.05;98033.53;5122384;28;662;-75
2020/12/24 02:13:57;;;;;;;;;;;;;;;22.62;25.85;98028.31;5121691;28;826;-74
2020/12/24 02:16:22;;;;;;;;;;;;;;;22.77;25.80;98023.81;5104023;28;870;-75
2020/12/24 02:18:48;;;;;;;;;;;;;;;22.86;25.27;98018.25;5121746;28;1975;-75
2020/12/24 02:21:13;;;;;;;;;;;;;;;21.83;27.00;98012.75;5122293;28;705;-75
2020/12/24 02:23:38;;;;;;;;;;;;;;;21.41;27.17;98014.69;5121558;28;845;-74
2020/12/24 02:26:04;;;;;;;;;;;;;;;21.56;27.05;98007.41;5104328;28;819;-75
2020/12/24 02:28:29;;;;;;;;;;;;;;;22.12;26.88;98004.28;5121219;28;923;-75
2020/12/24 02:30:55;;;;;;;;;;;;;;;22.56;26.22;98015.97;5121854;28;868;-75
2020/12/24 02:33:20;;;;;;;;;;;;;;;22.75;25.84;98017.81;5104054;28;1286;-75
2020/12/24 02:35:45;;;;;;;;;;;;;;;22.66;25.72;98020.50;5122172;28;651;-75
2020/12/24 02:38:11;;;;;;;;;;;;;;;22.84;25.61;98006.56;5121869;28;1933;-76
2020/12/24 02:40:36;;;;;;;;;;;;;;;22.13;26.17;98000.22;5121854;28;992;-75
2020/12/24 02:43:02;;;;;;;;;;;;;;;21.96;26.75;98007.13;5121330;28;892;-75
2020/12/24 02:45:27;;;;;;;;;;;;;;;21.12;27.93;98009.69;5121501;28;973;-75
2020/12/24 02:47:53;;;;;;;;;;;;;;;22.33;26.39;98009.34;5121696;28;855;-75
2020/12/24 02:50:18;;;;;;;;;;;;;;;22.52;26.18;98006.75;5121453;28;713;-75
2020/12/24 02:52:44;;;;;;;;;;;;;;;22.61;25.89;98001.22;5121304;28;722;-75
2020/12/24 02:55:09;;;;;;;;;;;;;;;22.77;25.49;97998.28;5121145;28;1113;-76
2020/12/24 02:57:34;;;;;;;;;;;;;;;22.81;25.49;98004.63;5121195;28;1964;-75
2020/12/24 03:00:07;;;;;;;;;;;;;;;21.30;27.63;98001.59;5121232;28;887;-75
2020/12/24 03:02:32;;;;;;;;;;;;;;;21.70;27.15;98001.34;5121978;28;665;-76
2020/12/24 03:04:58;;;;;;;;;;;;;;;21.62;27.28;97999.19;5121695;28;678;-76
2020/12/24 03:07:23;;;;;;;;;;;;;;;21.73;27.32;98000.47;5122195;28;653;-76
2020/12/24 03:09:49;;;;;;;;;;;;;;;22.14;26.82;98004.63;5121542;28;745;-76
2020/12/24 03:12:14;;;;;;;;;;;;;;;22.52;26.36;98006.75;5121896;28;626;-74
2020/12/24 03:14:40;;;;;;;;;;;;;;;22.83;25.61;98013.47;5121028;28;878;-76
2020/12/24 03:17:05;;;;;;;;;;;;;;;23.03;25.60;98006.81;5104007;28;1901;-76
2020/12/24 03:19:30;;;;;;;;;;;;;;;22.71;25.79;98017.09;5121351;28;955;-76
2020/12/24 03:21:56;;;;;;;;;;;;;;;21.44;27.68;98010.97;5121942;28;606;-76
2020/12/24 03:24:21;;;;;;;;;;;;;;;21.23;27.95;98020.75;5121428;28;678;-77
2020/12/24 03:26:47;;;;;;;;;;;;;;;21.64;27.17;98003.16;5121857;28;641;-76
2020/12/24 03:29:12;;;;;;;;;;;;;;;22.33;26.71;98003.66;5121031;28;899;-75
2020/12/24 03:31:38;;;;;;;;;;;;;;;22.63;25.99;98010.06;5121297;28;842;-76
2020/12/24 03:34:03;;;;;;;;;;;;;;;22.62;26.21;98008.47;5120925;28;836;-74
2020/12/24 03:36:28;;;;;;;;;;;;;;;22.76;25.88;98019.38;5125262;28;718;-74
2020/12/24 03:38:54;;;;;;;;;;;;;;;22.66;25.85;98020.50;5125084;28;1934;-76
2020/12/24 03:41:19;;;;;;;;;;;;;;;20.85;28.31;98009.16;5125656;28;1071;-75
2020/12/24 03:43:45;;;;;;;;;;;;;;;21.58;27.42;98010.59;5124687;28;866;-74
2020/12/24 03:46:11;;;;;;;;;;;;;;;21.61;27.51;98012.53;5125041;28;853;-76
2020/12/24 03:48:36;;;;;;;;;;;;;;;22.16;26.77;98015.50;5124957;28;857;-77
2020/12/24 03:51:01;;;;;;;;;;;;;;;22.58;26.21;98019.91;5125785;28;662;-76
2020/12/24 03:53:27;;;;;;;;;;;;;;;22.91;25.67;98025.44;5124919;28;622;-75
2020/12/24 03:55:52;;;;;;;;;;;;;;;22.80;25.61;98025.75;5125974;28;638;-75
2020/12/24 03:58:18;;;;;;;;;;;;;;;22.93;25.59;98022.13;5124407;28;1914;-75
2020/12/24 04:00:43;;;;;;;;;;;;;;;22.81;25.55;98021.66;5124966;28;914;-76
2020/12/24 04:03:09;;;;;;;;;;;;;;;21.35;27.67;98025.75;5124743;28;958;-76
2020/12/24 04:05:34;;;;;;;;;;;;;;;20.69;28.93;98027.69;5125049;28;725;-76
2020/12/24 04:07:59;;;;;;;;;;;;;;;21.68;27.45;98026.50;5124855;28;670;-76
2020/12/24 04:10:25;;;;;;;;;;;;;;;22.10;27.07;98026.56;5124768;28;716;-76
2020/12/24 04:12:50;;;;;;;;;;;;;;;22.50;26.11;98024.22;5124732;28;998;-76
2020/12/24 04:15:16;;;;;;;;;;;;;;;22.58;26.19;98028.41;5107330;28;978;-76
2020/12/24 04:17:41;;;;;;;;;;;;;;;22.71;25.80;98014.28;5125074;28;1922;-76
2020/12/24 04:20:07;;;;;;;;;;;;;;;22.76;25.64;98008.03;5124620;28;968;-75
2020/12/24 04:22:32;;;;;;;;;;;;;;;22.01;26.89;98009.41;5120135;28;1152;-76
2020/12/24 04:24:58;;;;;;;;;;;;;;;21.38;27.94;98007.06;5109125;28;1234;-75
2020/12/24 04:27:24;;;;;;;;;;;;;;;21.46;27.85;98011.31;5105606;28;1053;-75
2020/12/24 04:29:50;;;;;;;;;;;;;;;22.11;27.21;98025.34;5104036;28;869;-76
2020/12/24 04:32:15;;;;;;;;;;;;;;;22.43;26.50;98023.63;5104321;28;995;-76
2020/12/24 04:34:41;;;;;;;;;;;;;;;22.97;25.56;98031.34;5072600;28;1245;-75
2020/12/24 04:37:06;;;;;;;;;;;;;;;22.77;25.78;98020.97;5117643;28;1980;-76
2020/12/24 04:39:32;;;;;;;;;;;;;;;21.63;27.45;98018.53;5118960;28;1090;-76
2020/12/24 04:41:58;;;;;;;;;;;;;;;21.26;27.76;98029.16;5095519;28;1165;-74
2020/12/24 04:44:25;;;;;;;;;;;;;;;21.28;28.36;98026.69;5096202;28;1168;-75
2020/12/24 04:46:50;;;;;;;;;;;;;;;22.26;26.94;98029.38;5105335;28;908;-75
2020/12/24 04:49:16;;;;;;;;;;;;;;;22.44;26.65;98026.03;5123992;28;682;-75
2020/12/24 04:51:43;;;;;;;;;;;;;;;22.87;25.81;98025.50;5093907;28;1165;-76
2020/12/24 04:54:09;;;;;;;;;;;;;;;22.77;25.84;98015.28;5095503;28;1217;-76
2020/12/24 04:56:34;;;;;;;;;;;;;;;22.10;26.80;98024.56;5113360;28;1121;-76
2020/12/24 04:59:00;;;;;;;;;;;;;;;21.58;27.15;98021.91;5112748;28;1914;-76
2020/12/24 05:01:25;;;;;;;;;;;;;;;21.07;28.32;98021.53;5095726;28;1157;-76
2020/12/24 05:03:53;;;;;;;;;;;;;;;21.89;27.70;98024.34;5094658;28;1172;-77
2020/12/24 05:06:18;;;;;;;;;;;;;;;22.47;26.46;98030.00;5111725;28;1339;-77
2020/12/24 05:08:51;;;;;;;;;;;;;;;22.71;25.90;98028.44;5088632;28;1252;-76
2020/12/24 05:11:16;;;;;;;;;;;;;;;22.87;25.80;98042.53;5106557;28;1065;-79
2020/12/24 05:13:42;;;;;;;;;;;;;;;22.72;25.84;98035.72;5105240;28;1312;-76
2020/12/24 05:16:14;;;;;;;;;;;;;;;22.07;26.83;98036.78;5123969;28;1006;-76
2020/12/24 05:18:40;;;;;;;;;;;;;;;21.28;27.83;98038.00;5105602;28;1963;-75
2020/12/24 05:21:05;;;;;;;;;;;;;;;21.75;27.29;98031.97;5086811;28;1154;-74
2020/12/24 05:23:30;;;;;;;;;;;;;;;22.06;27.08;98028.69;5123016;28;670;-75
2020/12/24 05:25:56;;;;;;;;;;;;;;;22.42;26.58;98027.72;5122964;28;970;-74
2020/12/24 05:28:30;;;;;;;;;;;;;;;22.82;25.76;98028.91;5122798;28;947;-75
2020/12/24 05:30:56;;;;;;;;;;;;;;;22.62;26.14;98036.84;5123478;28;982;-73
2020/12/24 05:33:28;;;;;;;;;;;;;;;22.16;26.63;98038.97;5122686;28;606;-75
2020/12/24 05:35:56;;;;;;;;;;;;;;;21.37;27.86;98039.44;5122987;28;709;-75
2020/12/24 05:38:32;;;;;;;;;;;;;;;21.46;27.75;98033.97;5104895;28;1901;-75
2020/12/24 05:40:57;;;;;;;;;;;;;;;21.92;27.52;98040.47;5122600;28;1098;-75
2020/12/24 05:43:22;;;;;;;;;;;;;;;22.61;26.22;98030.38;5122308;28;892;-74
2020/12/24 05:45:48;;;;;;;;;;;;;;;22.84;25.99;98032.09;5122335;28;1047;-73
2020/12/24 05:48:13;;;;;;;;;;;;;;;22.83;25.84;98036.16;5122395;28;725;-73
2020/12/24 05:50:39;;;;;;;;;;;;;;;23.07;25.59;98030.22;5104757;28;582;-74
2020/12/24 05:53:11;;;;;;;;;;;;;;;21.71;26.95;98031.28;5122266;28;689;-73
2020/12/24 05:55:38;;;;;;;;;;;;;;;21.54;27.46;98032.53;5122039;28;939;-73
2020/12/24 05:58:03;;;;;;;;;;;;;;;21.31;27.88;98034.31;5121536;28;1914;-74
2020/12/24 06:00:32;;;;;;;;;;;;;;;21.78;27.29;98025.41;5122138;28;971;-74
2020/12/24 06:03:03;;;;;;;;;;;;;;;21.60;27.83;98033.59;5122391;28;610;-72
2020/12/24 06:05:29;;;;;;;;;;;;;;;21.50;28.06;98029.00;5104704;28;626;-72
2020/12/24 06:08:03;;;;;;;;;;;;;;;22.41;26.45;98037.47;5122038;28;594;-74
2020/12/24 06:10:34;;;;;;;;;;;;;;;22.72;26.26;98029.25;5104100;28;864;-73
2020/12/24 06:12:59;;;;;;;;;;;;;;;22.38;26.61;98021.34;5104245;28;847;-73
2020/12/24 06:15:25;;;;;;;;;;;;;;;22.82;26.10;98026.06;5104189;28;816;-72
2020/12/24 06:17:50;;;;;;;;;;;;;;;22.25;26.72;98024.16;5104163;28;1905;-73
2020/12/24 06:20:16;;;;;;;;;;;;;;;21.47;28.05;98032.72;5121913;28;629;-73
2020/12/24 06:22:42;;;;;;;;;;;;;;;21.08;28.50;98040.09;5121563;28;643;-73
2020/12/24 06:25:07;;;;;;;;;;;;;;;21.29;28.49;98033.91;5121599;28;840;-73
2020/12/24 06:27:32;;;;;;;;;;;;;;;22.39;26.58;98028.63;5103832;28;906;-76
2020/12/24 06:30:02;;;;;;;;;;;;;;;22.82;25.98;98023.25;5121666;28;790;-75
2020/12/24 06:32:28;;;;;;;;;;;;;;;22.90;26.15;98018.19;5121719;28;669;-72
2020/12/24 06:34:54;;;;;;;;;;;;;;;22.57;26.18;98024.00;5098085;28;1134;-72
2020/12/24 06:37:19;;;;;;;;;;;;;;;21.78;27.53;98018.97;5121744;28;1967;-74
2020/12/24 06:39:48;;;;;;;;;;;;;;;21.41;27.89;98023.97;5121065;28;1005;-74
2020/12/24 06:42:32;;;;;;;;;;;;;;;21.41;28.50;98026.00;5121590;28;900;-76
2020/12/24 06:44:58;;;;;;;;;;;;;;;22.08;27.56;98020.56;5121352;28;884;-75
2020/12/24 06:47:23;;;;;;;;;;;;;;;22.57;26.43;98026.84;5121477;28;666;-72
2020/12/24 06:49:48;;;;;;;;;;;;;;;22.38;26.67;98033.47;5121673;28;670;-73
2020/12/24 06:52:15;;;;;;;;;;;;;;;22.95;26.02;98030.97;5121297;28;652;-63
2020/12/24 06:54:40;;;;;;;;;;;;;;;22.34;27.83;98027.16;5117964;28;1055;-67
2020/12/24 06:57:25;;;;;;;;;;;;;;;22.05;28.57;98019.41;5121054;28;1906;-76
2020/12/24 07:00:09;;;;;;;;;;;;;;;21.50;29.09;98003.50;5121100;28;844;-75
2020/12/24 07:02:34;;;;;;;;;;;;;;;21.64;28.83;98008.81;5121337;28;642;-75
2020/12/24 07:05:00;;;;;;;;;;;;;;;21.47;29.31;98010.88;5121109;28;914;-75
2020/12/24 07:07:41;;;;;;;;;;;;;;;21.64;28.86;98010.84;5120908;28;865;-75
2020/12/24 07:10:06;;;;;;;;;;;;;;;22.06;28.31;98011.69;5120323;28;885;-74
2020/12/24 07:12:32;;;;;;;;;;;;;;;22.51;27.43;98019.34;5120891;28;564;-75
2020/12/24 07:15:15;;;;;;;;;;;;;;;22.52;27.32;98020.94;5103143;28;635;-75
2020/12/24 07:17:42;;;;;;;;;;;;;;;22.77;27.04;98014.50;5103087;28;1898;-75
2020/12/24 07:20:08;;;;;;;;;;;;;;;22.63;26.96;98004.38;5103045;28;1189;-75
2020/12/24 07:22:33;;;;;;;;;;;;;;;21.42;28.98;98004.94;5120828;28;875;-75
2020/12/24 07:25:08;;;;;;;;;;;;;;;21.42;28.64;97999.28;5102881;28;932;-75
2020/12/24 07:27:44;;;;;;;;;;;;;;;21.42;28.91;97997.25;5120591;28;857;-75
2020/12/24 07:30:10;;;;;;;;;;;;;;;22.03;28.04;98004.13;5120740;28;654;-75
2020/12/24 07:32:35;;;;;;;;;;;;;;;22.33;27.47;97998.00;5120608;28;678;-75
2020/12/24 07:35:00;;;;;;;;;;;;;;;22.55;27.19;97994.53;5120712;28;682;-75
2020/12/24 07:37:26;;;;;;;;;;;;;;;22.58;27.09;97999.28;5120258;28;1897;-75
2020/12/24 07:39:57;;;;;;;;;;;;;;;22.38;26.92;97998.66;5120159;28;1151;-75
2020/12/24 07:42:23;;;;;;;;;;;;;;;21.98;27.77;98007.50;5120630;28;927;-74
2020/12/24 07:44:48;;;;;;;;;;;;;;;20.87;29.33;98003.84;5120487;28;623;-75
2020/12/24 07:47:14;;;;;;;;;;;;;;;21.53;28.41;98002.63;5120498;28;677;-74
2020/12/24 07:49:47;;;;;;;;;;;;;;;21.45;28.67;97998.38;5120421;28;630;-75
2020/12/24 07:52:13;;;;;;;;;;;;;;;22.20;27.74;98008.50;5120919;28;734;-75
2020/12/24 07:54:38;;;;;;;;;;;;;;;22.40;27.07;98007.53;5102713;28;834;-75
2020/12/24 07:57:04;;;;;;;;;;;;;;;22.72;26.67;98007.34;5120424;28;1906;-74
2020/12/24 07:59:29;;;;;;;;;;;;;;;22.38;27.10;98010.81;5120434;28;863;-75
2020/12/24 08:02:04;;;;;;;;;;;;;;;21.13;29.03;98004.84;5120363;28;680;-75
2020/12/24 08:04:29;;;;;;;;;;;;;;;21.57;28.22;98009.00;5103007;28;844;-75
2020/12/24 08:06:55;;;;;;;;;;;;;;;21.84;28.23;98000.97;5120432;28;650;-75
2020/12/24 08:09:20;;;;;;;;;;;;;;;22.24;27.56;98003.53;5120086;28;825;-75
2020/12/24 08:11:55;;;;;;;;;;;;;;;22.65;26.61;98001.91;5119965;28;892;-75
2020/12/24 08:14:30;;;;;;;;;;;;;;;22.50;26.90;98012.88;5120187;28;832;-75
2020/12/24 08:17:17;;;;;;;;;;;;;;;22.25;27.03;98007.94;5120312;28;665;-75
2020/12/24 08:19:52;;;;;;;;;;;;;;;21.45;28.38;98006.88;5120369;28;690;-75
2020/12/24 08:22:21;;;;;;;;;;;;;;;21.56;28.21;98007.41;5105565;28;955;-75
2020/12/24 08:24:47;;;;;;;;;;;;;;;21.62;28.33;98011.31;5123950;28;981;-77
2020/12/24 08:27:12;;;;;;;;;;;;;;;22.09;28.01;98011.63;5106521;28;851;-76
2020/12/24 08:29:37;;;;;;;;;;;;;;;22.25;27.62;98018.50;5124172;28;683;-76
2020/12/24 08:32:03;;;;;;;;;;;;;;;22.50;26.94;98020.59;5106556;28;579;-76
2020/12/24 08:34:29;;;;;;;;;;;;;;;22.54;26.94;98018.47;5106200;28;817;-76
2020/12/24 08:36:56;;;;;;;;;;;;;;;22.40;27.14;98018.88;5123875;28;1020;-76
2020/12/24 08:39:21;;;;;;;;;;;;;;;21.28;28.73;98018.19;5123795;28;1905;-79
2020/12/24 08:41:47;;;;;;;;;;;;;;;21.45;28.26;98013.38;5123793;28;991;-77
2020/12/24 08:44:16;;;;;;;;;;;;;;;21.62;28.56;98016.97;5124052;28;697;-77
2020/12/24 08:46:42;;;;;;;;;;;;;;;22.09;27.93;98022.16;5106495;28;565;-78
2020/12/24 08:49:27;;;;;;;;;;;;;;;22.48;27.22;98015.34;5105771;28;1053;-77
2020/12/24 08:52:12;;;;;;;;;;;;;;;22.46;27.29;98014.22;5123337;28;957;-78
2020/12/24 08:54:37;;;;;;;;;;;;;;;21.81;27.85;98007.56;5123713;28;607;-77
2020/12/24 08:57:03;;;;;;;;;;;;;;;21.66;27.85;98008.34;5106074;28;1898;-78
2020/12/24 08:59:51;;;;;;;;;;;;;;;21.51;28.13;98005.13;5096400;28;1075;-77
2020/12/24 09:02:43;;;;;;;;;;;;;;;21.47;28.49;97999.56;5069108;28;1267;-74
2020/12/24 09:05:09;;;;;;;;;;;;;;;22.21;27.75;97995.13;5099760;28;988;-76
2020/12/24 09:07:34;;;;;;;;;;;;;;;22.38;27.02;97987.31;5085662;28;1082;-79
2020/12/24 09:10:09;;;;;;;;;;;;;;;22.69;26.55;97979.91;5101034;28;1185;-78
2020/12/24 09:12:35;;;;;;;;;;;;;;;22.33;26.80;97975.31;5124466;28;1070;-81
2020/12/24 09:15:10;;;;;;;;;;;;;;;21.54;28.22;97973.06;5090979;28;587;-78
2020/12/24 09:17:36;;;;;;;;;;;;;;;21.42;28.45;97971.00;5105375;28;1967;-78
2020/12/24 09:20:08;;;;;;;;;;;;;;;21.32;28.26;97965.16;5088343;28;918;-78
2020/12/24 09:22:34;;;;;;;;;;;;;;;21.93;28.19;97965.56;5088964;28;1124;-78
2020/12/24 09:24:59;;;;;;;;;;;;;;;22.26;27.39;97971.91;5105311;28;781;-76
2020/12/24 09:27:25;;;;;;;;;;;;;;;22.62;27.02;97963.88;5123240;28;674;-78
2020/12/24 09:29:50;;;;;;;;;;;;;;;22.69;26.60;97960.06;5105338;28;890;-76
2020/12/24 09:32:37;;;;;;;;;;;;;;;22.49;26.92;97965.16;5121988;28;870;-77
2020/12/24 09:35:03;;;;;;;;;;;;;;;21.75;27.91;97957.53;5122501;28;828;-77
2020/12/24 09:37:28;;;;;;;;;;;;;;;21.64;27.67;97957.84;5122719;28;1901;-77
2020/12/24 09:39:54;;;;;;;;;;;;;;;21.36;28.12;97950.91;5122601;28;976;-76
2020/12/24 09:42:19;;;;;;;;;;;;;;;21.67;28.70;97939.97;5122986;28;661;-76
2020/12/24 09:44:46;;;;;;;;;;;;;;;22.04;27.84;97946.19;5122482;28;722;-76
2020/12/24 09:47:12;;;;;;;;;;;;;;;22.45;27.10;97930.44;5122279;28;1098;-77
2020/12/24 09:49:37;;;;;;;;;;;;;;;22.50;27.00;97921.34;5122268;28;927;-76
2020/12/24 09:52:03;;;;;;;;;;;;;;;22.46;27.06;97927.13;5122477;28;828;-76
2020/12/24 09:54:28;;;;;;;;;;;;;;;21.95;27.51;97921.34;5122452;28;626;-76
2020/12/24 09:56:55;;;;;;;;;;;;;;;21.74;27.61;97917.09;5122588;28;675;-76
2020/12/24 09:59:20;;;;;;;;;;;;;;;21.70;27.63;97910.72;5122179;28;1983;-77
2020/12/24 10:01:46;;;;;;;;;;;;;;;21.52;28.08;97916.13;5122212;28;622;-76
2020/12/24 10:04:11;;;;;;;;;;;;;;;21.81;28.37;97916.91;5121992;28;958;-76
2020/12/24 10:06:37;;;;;;;;;;;;;;;22.25;27.49;97911.59;5121917;28;878;-76
2020/12/24 10:09:03;;;;;;;;;;;;;;;22.58;26.58;97906.47;5122139;28;945;-77
2020/12/24 10:11:28;;;;;;;;;;;;;;;22.65;26.60;97911.16;5122219;28;665;-77
2020/12/24 10:13:53;;;;;;;;;;;;;;;21.94;27.66;97902.78;5121914;28;657;-76
2020/12/24 10:16:25;;;;;;;;;;;;;;;21.36;28.62;97913.34;5122102;28;638;-76
2020/12/24 10:18:50;;;;;;;;;;;;;;;21.39;28.53;97895.44;5121494;28;1910;-77
2020/12/24 10:21:15;;;;;;;;;;;;;;;22.00;27.66;97900.16;5102821;28;1079;-75
2020/12/24 10:23:41;;;;;;;;;;;;;;;22.30;27.28;97907.41;5121243;28;1081;-74
2020/12/24 10:26:06;;;;;;;;;;;;;;;22.44;27.01;97901.28;5121756;28;726;-75
2020/12/24 10:28:32;;;;;;;;;;;;;;;22.52;27.11;97902.63;5122087;28;637;-75
2020/12/24 10:30:57;;;;;;;;;;;;;;;21.61;27.92;97901.31;5121627;28;684;-76
2020/12/24 10:33:23;;;;;;;;;;;;;;;21.20;28.76;97895.13;5121322;28;876;-76
2020/12/24 10:35:48;;;;;;;;;;;;;;;21.38;28.28;97894.66;5121657;28;941;-76
2020/12/24 10:38:14;;;;;;;;;;;;;;;22.07;28.06;97882.94;5121397;28;1968;-76
2020/12/24 10:40:39;;;;;;;;;;;;;;;22.48;26.91;97884.13;5121588;28;1164;-76
2020/12/24 10:43:05;;;;;;;;;;;;;;;22.46;26.88;97878.16;5121623;28;641;-76
2020/12/24 10:45:30;;;;;;;;;;;;;;;22.57;26.98;97870.06;5120397;28;644;-77
2020/12/24 10:47:56;;;;;;;;;;;;;;;22.09;27.33;97855.75;5120983;28;1064;-77
2020/12/24 10:50:21;;;;;;;;;;;;;;;21.29;28.35;97864.13;5103618;28;964;-77
2020/12/24 10:52:47;;;;;;;;;;;;;;;21.61;28.13;97861.69;5103809;28;840;-82
2020/12/24 10:55:12;;;;;;;;;;;;;;;21.46;28.94;97855.63;5105586;28;914;-79
2020/12/24 10:57:38;;;;;;;;;;;;;;;22.32;27.32;97854.66;5105966;28;1902;-78
2020/12/24 11:00:04;;;;;;;;;;;;;;;22.49;27.15;97848.91;5105211;28;839;-76
2020/12/24 11:02:30;;;;;;;;;;;;;;;22.63;26.82;97848.41;5103449;28;896;-77
2020/12/24 11:04:55;;;;;;;;;;;;;;;22.16;27.13;97843.44;5121300;28;1077;-76
2020/12/24 11:07:21;;;;;;;;;;;;;;;21.69;28.00;97846.84;5121090;28;674;-77
2020/12/24 11:09:46;;;;;;;;;;;;;;;20.98;28.77;97848.81;5120978;28;650;-77
2020/12/24 11:12:11;;;;;;;;;;;;;;;21.56;28.26;97848.88;5121089;28;689;-76
2020/12/24 11:14:37;;;;;;;;;;;;;;;21.87;28.06;97839.88;5120575;28;992;-76
2020/12/24 11:17:04;;;;;;;;;;;;;;;22.20;27.56;97834.84;5121065;28;832;-78
2020/12/24 11:19:29;;;;;;;;;;;;;;;22.42;27.08;97835.72;5120869;28;1893;-75
2020/12/24 11:21:55;;;;;;;;;;;;;;;22.48;26.83;97833.09;5121235;28;627;-76
2020/12/24 11:24:20;;;;;;;;;;;;;;;22.31;27.03;97836.06;5120891;28;722;-76
2020/12/24 11:26:46;;;;;;;;;;;;;;;21.27;28.49;97838.31;5120854;28;657;-75
2020/12/24 11:29:11;;;;;;;;;;;;;;;21.36;28.65;97839.75;5120485;28;970;-76
2020/12/24 11:31:37;;;;;;;;;;;;;;;21.32;28.34;97834.19;5103254;28;889;-77
2020/12/24 11:34:02;;;;;;;;;;;;;;;21.97;27.91;97831.06;5103228;28;993;-79
2020/12/24 11:36:28;;;;;;;;;;;;;;;22.32;27.11;97826.31;5103071;28;654;-73
2020/12/24 11:38:54;;;;;;;;;;;;;;;22.63;26.34;97814.38;5120713;28;1905;-74
2020/12/24 11:41:20;;;;;;;;;;;;;;;22.54;26.57;97817.91;5120627;28;996;-77
2020/12/24 11:43:45;;;;;;;;;;;;;;;22.08;27.27;97822.22;5102640;28;979;-75
2020/12/24 11:46:11;;;;;;;;;;;;;;;21.37;27.96;97807.38;5120793;28;1006;-77
2020/12/24 11:48:37;;;;;;;;;;;;;;;21.55;28.73;97818.94;5102911;28;852;-67
2020/12/24 11:51:06;;;;;;;;;;;;;;;22.02;27.84;97812.69;5122252;28;678;-70
2020/12/24 11:53:31;;;;;;;;;;;;;;;21.82;28.66;97808.03;5120954;28;669;-78
2020/12/24 11:55:57;;;;;;;;;;;;;;;21.72;28.79;97816.84;5122202;28;1066;-79
2020/12/24 11:58:22;;;;;;;;;;;;;;;21.67;28.95;97806.88;5124607;28;1974;-69
2020/12/24 12:00:48;;;;;;;;;;;;;;;22.14;28.77;97809.09;5124799;28;915;-77
2020/12/24 12:03:13;;;;;;;;;;;;;;;21.89;29.04;97806.22;5124556;28;651;-73
2020/12/24 12:05:39;;;;;;;;;;;;;;;21.67;28.95;97801.22;5124544;28;661;-73
2020/12/24 12:08:04;;;;;;;;;;;;;;;21.41;29.62;97796.75;5124369;28;662;-73
2020/12/24 12:10:30;;;;;;;;;;;;;;;21.48;29.03;97799.34;5124160;28;955;-74
2020/12/24 12:12:55;;;;;;;;;;;;;;;21.91;28.54;97800.88;5124173;28;889;-75
2020/12/24 12:15:21;;;;;;;;;;;;;;;22.22;28.21;97793.44;5124208;28;996;-74
2020/12/24 12:17:46;;;;;;;;;;;;;;;22.46;27.45;97801.59;5124121;28;1906;-73
2020/12/24 12:20:12;;;;;;;;;;;;;;;22.36;27.43;97795.03;5124318;28;629;-74
2020/12/24 12:22:37;;;;;;;;;;;;;;;21.99;28.06;97796.59;5123882;28;865;-74
2020/12/24 12:25:03;;;;;;;;;;;;;;;21.51;28.80;97785.09;5123862;28;918;-74
2020/12/24 12:27:28;;;;;;;;;;;;;;;21.67;28.47;97792.72;5124158;28;864;-74
2020/12/24 12:29:54;;;;;;;;;;;;;;;21.42;28.79;97792.66;5124242;28;615;-75
2020/12/24 12:32:19;;;;;;;;;;;;;;;21.73;28.60;97788.09;5124117;28;617;-75
2020/12/24 12:34:48;;;;;;;;;;;;;;;22.15;27.96;97776.69;5124022;28;632;-75
2020/12/24 12:37:15;;;;;;;;;;;;;;;22.28;27.49;97774.63;5123998;28;1973;-75
2020/12/24 12:39:40;;;;;;;;;;;;;;;22.45;27.19;97772.44;5123611;28;1124;-75
2020/12/24 12:42:06;;;;;;;;;;;;;;;21.92;27.76;97779.84;5123931;28;860;-77
2020/12/24 12:44:31;;;;;;;;;;;;;;;21.75;28.22;97782.75;5124353;28;681;-75
2020/12/24 12:46:57;;;;;;;;;;;;;;;21.62;28.10;97778.34;5124336;28;651;-77
2020/12/24 12:49:22;;;;;;;;;;;;;;;21.70;28.28;97786.13;5123857;28;965;-77
2020/12/24 12:51:49;;;;;;;;;;;;;;;21.83;28.39;97778.47;5124431;28;842;-76
2020/12/24 12:54:15;;;;;;;;;;;;;;;22.33;27.11;97782.56;5124216;28;1102;-77
2020/12/24 12:56:42;;;;;;;;;;;;;;;22.55;26.79;97787.53;5124385;28;660;-76
2020/12/24 12:59:07;;;;;;;;;;;;;;;22.40;26.81;97775.06;5106628;28;1974;-77
2020/12/24 13:01:33;;;;;;;;;;;;;;;22.09;27.39;97779.25;5124509;28;614;-77